createdAt,value
2023-04-13T00:00:27.675Z,1.10
2023-04-13T00:01:27.692Z,1.10
2023-04-13T00:02:27.815Z,1.10
2023-04-13T00:03:27.931Z,1.20
2023-04-13T00:04:27.662Z,1.20
2023-04-13T00:05:27.684Z,1.20
2023-04-13T00:06:27.646Z,1.00
2023-04-13T00:07:27.635Z,1.50
2023-04-13T00:08:27.634Z,1.30
2023-04-13T00:09:27.682Z,1.30
2023-04-13T00:10:27.637Z,1.00
2023-04-13T00:11:27.641Z,1.20
2023-04-13T00:12:27.618Z,1.20
2023-04-13T00:13:27.614Z,1.50
2023-04-13T00:14:27.602Z,1.10
2023-04-13T00:15:27.595Z,1.30
2023-04-13T00:16:27.613Z,1.20
2023-04-13T00:17:27.625Z,1.20
2023-04-13T00:18:27.580Z,1.10
2023-04-13T00:19:27.569Z,1.30
2023-04-13T00:20:27.568Z,1.10
2023-04-13T00:21:27.560Z,1.30
2023-04-13T00:22:27.561Z,1.40
2023-04-13T00:23:27.551Z,1.20
2023-04-13T00:24:27.552Z,1.30
2023-04-13T00:25:27.556Z,1.30
2023-04-13T00:26:27.537Z,1.10
2023-04-13T00:27:27.637Z,1.30
2023-04-13T00:28:27.544Z,1.60
2023-04-13T00:29:27.515Z,1.30
2023-04-13T00:30:27.513Z,1.30
2023-04-13T00:31:27.585Z,1.30
2023-04-13T00:32:27.515Z,1.10
2023-04-13T00:33:27.493Z,1.30
2023-04-13T00:34:27.492Z,1.20
2023-04-13T00:35:27.486Z,1.40
2023-04-13T00:36:27.501Z,1.30
2023-04-13T00:37:27.473Z,1.30
2023-04-13T00:38:27.482Z,1.50
2023-04-13T00:39:27.465Z,1.10
2023-04-13T00:40:27.461Z,1.40
2023-04-13T00:41:27.595Z,1.20
2023-04-13T00:42:27.454Z,1.40
2023-04-13T00:43:27.465Z,1.50
2023-04-13T00:44:27.438Z,1.30
2023-04-13T00:45:27.437Z,1.30
2023-04-13T00:46:27.755Z,1.20
2023-04-13T00:47:27.478Z,1.20
2023-04-13T00:48:27.422Z,1.20
2023-04-13T00:49:27.410Z,1.20
2023-04-13T00:50:27.421Z,1.50
2023-04-13T00:51:27.406Z,1.20
2023-04-13T00:52:27.402Z,1.30
2023-04-13T00:53:27.392Z,1.10
2023-04-13T00:54:27.388Z,1.40
2023-04-13T00:55:27.391Z,1.30
2023-04-13T00:56:27.399Z,1.40
2023-04-13T00:57:27.391Z,1.30
2023-04-13T00:58:27.364Z,1.20
2023-04-13T00:59:27.361Z,1.20
2023-04-13T01:00:27.357Z,1.20
2023-04-13T01:01:27.356Z,1.30
2023-04-13T01:02:27.408Z,1.30
2023-04-13T01:03:27.483Z,1.50
2023-04-13T01:04:27.378Z,1.30
2023-04-13T01:05:27.332Z,1.40
2023-04-13T01:06:27.323Z,1.20
2023-04-13T01:07:27.338Z,1.30
2023-04-13T01:08:27.311Z,1.40
2023-04-13T01:09:27.309Z,1.10
2023-04-13T01:10:27.300Z,1.40
2023-04-13T01:11:27.304Z,1.30
2023-04-13T01:12:27.292Z,1.20
2023-04-13T01:13:27.305Z,1.20
2023-04-13T01:14:27.280Z,1.20
2023-04-13T01:15:27.281Z,1.20
2023-04-13T01:16:27.340Z,1.20
2023-04-13T01:17:27.298Z,1.00
2023-04-13T01:18:27.262Z,1.30
2023-04-13T01:19:27.255Z,1.00
2023-04-13T01:20:27.258Z,1.30
2023-04-13T01:21:27.246Z,1.10
2023-04-13T01:22:27.252Z,1.20
2023-04-13T01:23:27.248Z,1.40
2023-04-13T01:24:27.230Z,1.10
2023-04-13T01:25:27.228Z,1.10
2023-04-13T01:26:27.226Z,1.00
2023-04-13T01:27:27.228Z,1.10
2023-04-13T01:28:27.208Z,1.40
2023-04-13T01:29:27.226Z,1.10
2023-04-13T01:30:27.208Z,1.30
2023-04-13T01:31:27.278Z,1.10
2023-04-13T01:32:27.195Z,1.30
2023-04-13T01:33:27.186Z,1.10
2023-04-13T01:34:27.175Z,1.00
2023-04-13T01:35:27.176Z,1.10
2023-04-13T01:36:27.167Z,1.00
2023-04-13T01:37:27.163Z,1.10
2023-04-13T01:38:27.177Z,1.00
2023-04-13T01:39:27.157Z,1.10
2023-04-13T01:40:27.151Z,1.20
2023-04-13T01:41:27.141Z,1.00
2023-04-13T01:42:27.137Z,1.00
2023-04-13T01:43:27.139Z,1.00
2023-04-13T01:44:27.135Z,1.20
2023-04-13T01:45:27.144Z,1.10
2023-04-13T01:46:27.398Z,1.20
2023-04-13T01:47:27.157Z,1.00
2023-04-13T01:48:27.108Z,0.90
2023-04-13T01:49:27.107Z,1.20
2023-04-13T01:50:27.094Z,1.00
2023-04-13T01:51:27.092Z,0.90
2023-04-13T01:52:27.089Z,1.30
2023-04-13T01:53:27.082Z,1.00
2023-04-13T01:54:27.077Z,1.20
2023-04-13T01:55:27.177Z,1.10
2023-04-13T01:56:27.068Z,1.10
2023-04-13T01:57:27.064Z,1.20
2023-04-13T01:58:27.056Z,1.00
2023-04-13T01:59:27.062Z,1.20
2023-04-13T02:00:27.047Z,1.00
2023-04-13T02:01:27.095Z,0.90
2023-04-13T02:02:27.151Z,1.20
2023-04-13T02:03:27.099Z,0.90
2023-04-13T02:04:27.028Z,1.10
2023-04-13T02:05:27.026Z,1.00
2023-04-13T02:06:27.026Z,1.10
2023-04-13T02:07:27.022Z,1.10
2023-04-13T02:08:27.008Z,1.10
2023-04-13T02:09:27.002Z,1.20
2023-04-13T02:10:26.995Z,1.00
2023-04-13T02:11:26.994Z,1.10
2023-04-13T02:12:26.999Z,1.00
2023-04-13T02:13:27.043Z,1.00
2023-04-13T02:14:26.976Z,1.00
2023-04-13T02:15:26.987Z,1.00
2023-04-13T02:16:27.134Z,1.00
2023-04-13T02:17:27.005Z,1.20
2023-04-13T02:18:26.954Z,1.10
2023-04-13T02:19:26.950Z,1.00
2023-04-13T02:20:26.945Z,1.10
2023-04-13T02:21:26.942Z,1.00
2023-04-13T02:22:26.936Z,1.10
2023-04-13T02:23:26.928Z,1.00
2023-04-13T02:24:26.929Z,1.10
2023-04-13T02:25:26.919Z,1.10
2023-04-13T02:26:26.925Z,1.00
2023-04-13T02:27:26.917Z,1.30
2023-04-13T02:28:27.057Z,1.10
2023-04-13T02:29:26.931Z,1.20
2023-04-13T02:30:26.892Z,1.10
2023-04-13T02:31:27.073Z,1.40
2023-04-13T02:32:26.910Z,1.10
2023-04-13T02:33:26.899Z,1.00
2023-04-13T02:34:26.872Z,0.90
2023-04-13T02:35:26.872Z,1.10
2023-04-13T02:36:26.863Z,1.10
2023-04-13T02:37:26.860Z,1.10
2023-04-13T02:38:26.852Z,1.20
2023-04-13T02:39:26.853Z,0.80
2023-04-13T02:40:26.844Z,1.00
2023-04-13T02:41:26.839Z,1.00
2023-04-13T02:42:26.838Z,0.90
2023-04-13T02:43:26.855Z,1.20
2023-04-13T02:44:26.821Z,0.90
2023-04-13T02:45:26.936Z,1.10
2023-04-13T02:46:26.829Z,1.00
2023-04-13T02:47:26.863Z,1.30
2023-04-13T02:48:26.799Z,0.80
2023-04-13T02:49:26.814Z,1.00
2023-04-13T02:50:26.795Z,0.80
2023-04-13T02:51:26.991Z,1.10
2023-04-13T02:52:26.804Z,0.90
2023-04-13T02:53:26.776Z,0.90
2023-04-13T02:54:26.767Z,1.10
2023-04-13T02:55:26.817Z,0.90
2023-04-13T02:56:26.760Z,1.10
2023-04-13T02:57:26.766Z,0.90
2023-04-13T02:58:26.760Z,1.00
2023-04-13T02:59:26.745Z,1.10
2023-04-13T03:00:26.840Z,0.90
2023-04-13T03:01:26.818Z,1.00
2023-04-13T03:02:26.829Z,1.00
2023-04-13T03:03:26.776Z,1.00
2023-04-13T03:04:26.732Z,1.10
2023-04-13T03:05:26.882Z,0.90
2023-04-13T03:06:26.710Z,1.10
2023-04-13T03:07:26.709Z,1.00
2023-04-13T03:08:26.702Z,0.90
2023-04-13T03:09:26.700Z,1.00
2023-04-13T03:10:26.695Z,1.20
2023-04-13T03:11:26.685Z,1.00
2023-04-13T03:12:26.682Z,0.90
2023-04-13T03:13:26.673Z,1.00
2023-04-13T03:14:26.674Z,0.90
2023-04-13T03:15:26.698Z,0.90
2023-04-13T03:16:26.677Z,0.90
2023-04-13T03:17:26.681Z,1.00
2023-04-13T03:18:26.653Z,1.10
2023-04-13T03:19:26.648Z,0.90
2023-04-13T03:20:26.641Z,0.80
2023-04-13T03:21:26.663Z,1.20
2023-04-13T03:22:26.628Z,0.90
2023-04-13T03:23:26.627Z,1.00
2023-04-13T03:24:26.620Z,1.00
2023-04-13T03:25:26.622Z,1.00
2023-04-13T03:26:26.621Z,1.10
2023-04-13T03:27:26.621Z,1.00
2023-04-13T03:28:26.627Z,1.00
2023-04-13T03:29:26.615Z,0.80
2023-04-13T03:30:26.633Z,0.90
2023-04-13T03:31:26.632Z,1.00
2023-04-13T03:32:26.667Z,0.80
2023-04-13T03:33:26.582Z,1.00
2023-04-13T03:34:26.570Z,0.90
2023-04-13T03:35:26.568Z,0.80
2023-04-13T03:36:26.583Z,1.00
2023-04-13T03:37:26.579Z,0.80
2023-04-13T03:38:26.553Z,0.90
2023-04-13T03:39:26.550Z,0.90
2023-04-13T03:40:26.548Z,0.90
2023-04-13T03:41:26.545Z,0.80
2023-04-13T03:42:26.537Z,0.90
2023-04-13T03:43:26.547Z,0.80
2023-04-13T03:44:26.524Z,0.70
2023-04-13T03:45:26.518Z,0.80
2023-04-13T03:46:26.553Z,0.90
2023-04-13T03:47:26.539Z,0.90
2023-04-13T03:48:26.503Z,0.80
2023-04-13T03:49:26.520Z,0.80
2023-04-13T03:50:26.501Z,0.80
2023-04-13T03:51:26.490Z,0.80
2023-04-13T03:52:26.492Z,0.80
2023-04-13T03:53:26.500Z,0.80
2023-04-13T03:54:26.475Z,0.80
2023-04-13T03:55:26.475Z,0.90
2023-04-13T03:56:26.466Z,0.80
2023-04-13T03:57:26.484Z,0.80
2023-04-13T03:58:26.468Z,0.80
2023-04-13T03:59:26.468Z,0.70
2023-04-13T04:00:26.452Z,0.80
2023-04-13T04:01:26.440Z,0.80
2023-04-13T04:02:26.577Z,0.90
2023-04-13T04:03:26.667Z,0.80
2023-04-13T04:04:26.620Z,0.70
2023-04-13T04:05:26.422Z,0.80
2023-04-13T04:06:26.416Z,0.80
2023-04-13T04:07:26.419Z,0.70
2023-04-13T04:08:26.402Z,0.80
2023-04-13T04:09:26.523Z,0.80
2023-04-13T04:10:26.392Z,0.90
2023-04-13T04:11:26.393Z,1.00
2023-04-13T04:12:26.386Z,0.90
2023-04-13T04:13:26.378Z,0.80
2023-04-13T04:14:26.387Z,0.80
2023-04-13T04:15:26.375Z,0.70
2023-04-13T04:16:26.394Z,0.90
2023-04-13T04:17:26.412Z,1.00
2023-04-13T04:18:26.353Z,0.80
2023-04-13T04:19:26.358Z,0.80
2023-04-13T04:20:26.364Z,0.90
2023-04-13T04:21:26.348Z,0.90
2023-04-13T04:22:26.332Z,0.90
2023-04-13T04:23:26.327Z,1.00
2023-04-13T04:24:26.324Z,1.20
2023-04-13T04:25:26.341Z,1.10
2023-04-13T04:26:26.320Z,1.20
2023-04-13T04:27:26.349Z,1.00
2023-04-13T04:28:26.310Z,1.20
2023-04-13T04:29:26.298Z,1.00
2023-04-13T04:30:26.292Z,1.20
2023-04-13T04:31:26.310Z,0.90
2023-04-13T04:32:26.323Z,1.00
2023-04-13T04:33:26.279Z,1.00
2023-04-13T04:34:26.273Z,0.90
2023-04-13T04:35:26.326Z,0.80
2023-04-13T04:36:26.268Z,1.00
2023-04-13T04:37:26.289Z,1.10
2023-04-13T04:38:26.271Z,1.10
2023-04-13T04:39:26.251Z,0.90
2023-04-13T04:40:26.257Z,1.00
2023-04-13T04:41:26.261Z,0.90
2023-04-13T04:42:26.238Z,0.90
2023-04-13T04:43:26.240Z,1.00
2023-04-13T04:44:26.224Z,0.90
2023-04-13T04:45:26.273Z,1.10
2023-04-13T04:46:26.321Z,0.90
2023-04-13T04:47:26.262Z,0.70
2023-04-13T04:48:26.217Z,1.10
2023-04-13T04:49:26.199Z,0.80
2023-04-13T04:50:26.199Z,1.00
2023-04-13T04:51:26.192Z,1.00
2023-04-13T04:52:26.185Z,1.20
2023-04-13T04:53:26.180Z,1.10
2023-04-13T04:54:26.178Z,1.00
2023-04-13T04:55:26.171Z,0.90
2023-04-13T04:56:26.413Z,1.00
2023-04-13T04:57:27.886Z,0.90
2023-04-13T04:58:26.165Z,1.00
2023-04-13T04:59:26.160Z,0.80
2023-04-13T05:00:26.195Z,0.90
2023-04-13T05:01:26.200Z,1.00
2023-04-13T05:02:26.225Z,1.00
2023-04-13T05:03:26.174Z,0.90
2023-04-13T05:04:26.134Z,0.90
2023-04-13T05:05:26.143Z,0.90
2023-04-13T05:06:26.120Z,1.00
2023-04-13T05:07:26.115Z,0.90
2023-04-13T05:08:26.111Z,1.10
2023-04-13T05:09:26.118Z,1.10
2023-04-13T05:10:26.098Z,1.00
2023-04-13T05:11:26.096Z,0.90
2023-04-13T05:12:26.088Z,1.00
2023-04-13T05:13:26.138Z,0.90
2023-04-13T05:14:26.098Z,1.00
2023-04-13T05:15:26.080Z,1.00
2023-04-13T05:16:26.150Z,1.10
2023-04-13T05:17:26.090Z,0.90
2023-04-13T05:18:26.070Z,1.10
2023-04-13T05:19:26.058Z,0.90
2023-04-13T05:20:26.049Z,1.10
2023-04-13T05:21:26.043Z,0.80
2023-04-13T05:22:26.040Z,0.80
2023-04-13T05:23:26.032Z,1.10
2023-04-13T05:24:26.046Z,1.10
2023-04-13T05:25:26.029Z,0.90
2023-04-13T05:26:26.019Z,1.00
2023-04-13T05:27:26.019Z,1.00
2023-04-13T05:28:26.014Z,1.10
2023-04-13T05:29:26.027Z,0.90
2023-04-13T05:30:26.005Z,0.70
2023-04-13T05:31:26.028Z,1.10
2023-04-13T05:32:26.028Z,1.00
2023-04-13T05:33:25.984Z,1.10
2023-04-13T05:34:25.987Z,1.20
2023-04-13T05:35:25.973Z,1.20
2023-04-13T05:36:25.975Z,1.00
2023-04-13T05:37:25.962Z,1.00
2023-04-13T05:38:25.960Z,1.40
2023-04-13T05:39:25.959Z,1.30
2023-04-13T05:40:25.961Z,1.20
2023-04-13T05:41:25.945Z,1.30
2023-04-13T05:42:25.937Z,1.20
2023-04-13T05:43:25.951Z,1.10
2023-04-13T05:44:25.942Z,1.00
2023-04-13T05:45:26.013Z,1.30
2023-04-13T05:46:25.943Z,1.20
2023-04-13T05:47:25.949Z,1.20
2023-04-13T05:48:25.912Z,1.10
2023-04-13T05:49:25.901Z,1.30
2023-04-13T05:50:25.900Z,1.60
2023-04-13T05:51:25.894Z,1.50
2023-04-13T05:52:25.911Z,1.30
2023-04-13T05:53:25.892Z,1.60
2023-04-13T05:54:25.887Z,1.40
2023-04-13T05:55:25.885Z,1.50
2023-04-13T05:56:25.875Z,1.20
2023-04-13T05:57:25.865Z,1.30
2023-04-13T05:58:25.866Z,1.30
2023-04-13T05:59:25.855Z,1.50
2023-04-13T06:00:25.848Z,1.60
2023-04-13T06:01:26.224Z,1.20
2023-04-13T06:02:25.928Z,1.40
2023-04-13T06:03:26.023Z,1.50
2023-04-13T06:04:25.905Z,1.90
2023-04-13T06:05:25.975Z,2.30
2023-04-13T06:06:25.824Z,1.80
2023-04-13T06:07:25.820Z,1.60
2023-04-13T06:08:26.794Z,1.50
2023-04-13T06:09:25.797Z,1.60
2023-04-13T06:10:25.801Z,2.90
2023-04-13T06:11:25.796Z,3.90
2023-04-13T06:12:25.803Z,2.40
2023-04-13T06:13:25.780Z,1.60
2023-04-13T06:14:25.779Z,1.90
2023-04-13T06:15:25.771Z,3.00
2023-04-13T06:16:25.803Z,2.40
2023-04-13T06:17:25.838Z,1.70
2023-04-13T06:18:25.755Z,2.00
2023-04-13T06:19:27.643Z,1.80
2023-04-13T06:20:25.767Z,1.70
2023-04-13T06:21:25.740Z,2.00
2023-04-13T06:22:25.741Z,1.60
2023-04-13T06:23:25.732Z,2.00
2023-04-13T06:24:25.727Z,1.80
2023-04-13T06:25:25.720Z,1.90
2023-04-13T06:26:25.730Z,1.70
2023-04-13T06:27:25.712Z,1.80
2023-04-13T06:28:25.718Z,1.60
2023-04-13T06:29:25.703Z,1.70
2023-04-13T06:30:25.705Z,2.00
2023-04-13T06:31:25.735Z,1.60
2023-04-13T06:32:25.720Z,1.70
2023-04-13T06:33:25.698Z,1.90
2023-04-13T06:34:25.677Z,1.70
2023-04-13T06:35:25.674Z,1.90
2023-04-13T06:36:25.686Z,1.70
2023-04-13T06:37:25.672Z,1.60
2023-04-13T06:38:25.657Z,1.80
2023-04-13T06:39:28.204Z,1.70
2023-04-13T06:40:25.657Z,1.60
2023-04-13T06:41:25.640Z,1.80
2023-04-13T06:42:25.637Z,1.90
2023-04-13T06:43:29.507Z,1.60
2023-04-13T06:44:25.628Z,1.60
2023-04-13T06:45:25.624Z,1.70
2023-04-13T06:46:25.728Z,1.60
2023-04-13T06:47:25.637Z,1.90
2023-04-13T06:48:25.616Z,2.40
2023-04-13T06:49:25.628Z,1.80
2023-04-13T06:50:25.601Z,1.60
2023-04-13T06:51:25.599Z,1.60
2023-04-13T06:52:25.591Z,1.60
2023-04-13T06:53:25.589Z,2.40
2023-04-13T06:54:25.582Z,2.30
2023-04-13T06:55:25.576Z,1.80
2023-04-13T06:56:25.575Z,1.70
2023-04-13T06:57:25.564Z,1.80
2023-04-13T06:58:25.563Z,1.70
2023-04-13T06:59:25.560Z,1.50
2023-04-13T07:00:29.955Z,1.50
2023-04-13T07:01:25.631Z,1.60
2023-04-13T07:02:25.684Z,1.60
2023-04-13T07:03:25.597Z,1.40
2023-04-13T07:04:28.510Z,1.50
2023-04-13T07:05:25.554Z,1.60
2023-04-13T07:06:25.875Z,1.70
2023-04-13T07:07:25.520Z,1.50
2023-04-13T07:08:25.529Z,1.60
2023-04-13T07:09:25.511Z,1.50
2023-04-13T07:10:25.506Z,1.40
2023-04-13T07:11:25.503Z,1.60
2023-04-13T07:12:25.502Z,1.50
2023-04-13T07:13:25.496Z,1.80
2023-04-13T07:14:25.500Z,1.80
2023-04-13T07:15:25.483Z,1.60
2023-04-13T07:16:25.621Z,1.50
2023-04-13T07:17:25.487Z,1.50
2023-04-13T07:18:25.473Z,1.40
2023-04-13T07:19:25.468Z,1.50
2023-04-13T07:20:25.471Z,1.50
2023-04-13T07:21:25.476Z,1.70
2023-04-13T07:22:25.454Z,1.70
2023-04-13T07:23:25.454Z,1.60
2023-04-13T07:24:25.457Z,1.50
2023-04-13T07:25:25.455Z,1.40
2023-04-13T07:26:25.440Z,1.30
2023-04-13T07:27:25.434Z,1.40
2023-04-13T07:28:25.429Z,1.40
2023-04-13T07:29:25.422Z,1.50
2023-04-13T07:30:25.423Z,1.60
2023-04-13T07:31:25.442Z,1.70
2023-04-13T07:32:30.637Z,1.50
2023-04-13T07:33:25.433Z,1.70
2023-04-13T07:34:25.403Z,1.50
2023-04-13T07:35:25.395Z,1.50
2023-04-13T07:36:25.393Z,1.60
2023-04-13T07:37:25.421Z,1.70
2023-04-13T07:38:25.413Z,1.60
2023-04-13T07:39:25.730Z,1.60
2023-04-13T07:40:25.375Z,1.50
2023-04-13T07:41:25.385Z,1.40
2023-04-13T07:42:25.361Z,1.40
2023-04-13T07:43:25.360Z,1.60
2023-04-13T07:44:25.359Z,1.50
2023-04-13T07:45:25.348Z,1.60
2023-04-13T07:46:25.420Z,1.70
2023-04-13T07:47:25.438Z,1.70
2023-04-13T07:48:25.349Z,1.80
2023-04-13T07:49:25.341Z,1.60
2023-04-13T07:50:25.334Z,1.70
2023-04-13T07:51:25.331Z,1.70
2023-04-13T07:52:25.323Z,1.70
2023-04-13T07:53:25.329Z,1.90
2023-04-13T07:54:25.308Z,1.70
2023-04-13T07:55:25.309Z,1.70
2023-04-13T07:56:25.298Z,1.60
2023-04-13T07:57:25.290Z,1.60
2023-04-13T07:58:25.303Z,2.00
2023-04-13T07:59:25.464Z,1.60
2023-04-13T08:00:25.281Z,1.40
2023-04-13T08:01:25.272Z,1.70
2023-04-13T08:02:25.333Z,1.60
2023-04-13T08:03:25.353Z,1.60
2023-04-13T08:04:25.361Z,1.80
2023-04-13T08:05:25.292Z,1.80
2023-04-13T08:06:25.277Z,1.80
2023-04-13T08:07:25.244Z,1.80
2023-04-13T08:08:25.242Z,1.60
2023-04-13T08:09:25.339Z,1.80
2023-04-13T08:10:25.241Z,1.60
2023-04-13T08:11:25.227Z,1.70
2023-04-13T08:12:25.230Z,1.80
2023-04-13T08:13:25.336Z,1.60
2023-04-13T08:14:25.226Z,1.80
2023-04-13T08:15:25.216Z,1.90
2023-04-13T08:16:25.300Z,1.80
2023-04-13T08:17:25.207Z,1.70
2023-04-13T08:18:25.225Z,1.70
2023-04-13T08:19:25.196Z,1.60
2023-04-13T08:20:25.195Z,1.60
2023-04-13T08:21:25.187Z,1.80
2023-04-13T08:22:25.181Z,1.70
2023-04-13T08:23:25.183Z,1.50
2023-04-13T08:24:25.187Z,1.60
2023-04-13T08:25:25.200Z,1.80
2023-04-13T08:26:25.164Z,1.90
2023-04-13T08:27:25.162Z,1.60
2023-04-13T08:28:25.167Z,1.70
2023-04-13T08:29:25.150Z,1.90
2023-04-13T08:30:25.147Z,1.60
2023-04-13T08:31:25.170Z,1.90
2023-04-13T08:32:25.166Z,1.40
2023-04-13T08:33:25.132Z,1.90
2023-04-13T08:34:25.131Z,1.80
2023-04-13T08:35:25.124Z,1.70
2023-04-13T08:36:25.121Z,1.80
2023-04-13T08:37:25.149Z,1.90
2023-04-13T08:38:25.109Z,2.00
2023-04-13T08:39:25.126Z,1.80
2023-04-13T08:40:25.145Z,1.90
2023-04-13T08:41:25.116Z,2.00
2023-04-13T08:42:26.872Z,1.80
2023-04-13T08:43:25.089Z,2.00
2023-04-13T08:44:25.089Z,2.50
2023-04-13T08:45:25.078Z,2.20
2023-04-13T08:46:25.190Z,2.10
2023-04-13T08:47:25.135Z,2.30
2023-04-13T08:48:25.065Z,2.20
2023-04-13T08:49:25.058Z,2.10
2023-04-13T08:50:25.055Z,3.00
2023-04-13T08:51:25.047Z,2.50
2023-04-13T08:52:25.137Z,2.40
2023-04-13T08:53:25.040Z,2.50
2023-04-13T08:54:25.037Z,2.40
2023-04-13T08:55:25.035Z,2.40
2023-04-13T08:56:34.430Z,2.20
2023-04-13T08:57:25.248Z,2.30
2023-04-13T08:58:25.042Z,2.40
2023-04-13T08:59:25.012Z,2.50
2023-04-13T09:00:25.017Z,2.40
2023-04-13T09:01:25.084Z,2.30
2023-04-13T09:02:25.124Z,2.20
2023-04-13T09:03:25.203Z,2.70
2023-04-13T09:04:25.216Z,2.50
2023-04-13T09:05:25.257Z,2.40
2023-04-13T09:06:24.990Z,2.50
2023-04-13T09:07:25.007Z,2.20
2023-04-13T09:08:24.974Z,2.40
2023-04-13T09:09:24.966Z,2.60
2023-04-13T09:10:24.965Z,2.90
2023-04-13T09:11:24.958Z,2.50
2023-04-13T09:12:24.965Z,2.40
2023-04-13T09:13:25.659Z,2.90
2023-04-13T09:14:24.951Z,2.70
2023-04-13T09:15:24.940Z,2.80
2023-04-13T09:16:24.959Z,2.80
2023-04-13T09:17:25.062Z,2.90
2023-04-13T09:18:24.939Z,2.80
2023-04-13T09:19:24.926Z,2.80
2023-04-13T09:20:24.930Z,2.80
2023-04-13T09:21:24.927Z,2.70
2023-04-13T09:22:24.941Z,2.90
2023-04-13T09:23:24.919Z,2.90
2023-04-13T09:24:24.910Z,2.70
2023-04-13T09:25:24.900Z,3.10
2023-04-13T09:26:24.899Z,2.80
2023-04-13T09:27:24.894Z,3.00
2023-04-13T09:28:24.891Z,2.60
2023-04-13T09:29:24.905Z,2.70
2023-04-13T09:30:24.878Z,3.10
2023-04-13T09:31:24.912Z,3.10
2023-04-13T09:32:24.944Z,2.70
2023-04-13T09:33:24.872Z,3.30
2023-04-13T09:34:24.861Z,3.10
2023-04-13T09:35:24.857Z,3.10
2023-04-13T09:36:24.857Z,3.00
2023-04-13T09:37:24.859Z,3.00
2023-04-13T09:38:24.868Z,3.20
2023-04-13T09:39:24.842Z,3.10
2023-04-13T09:40:24.835Z,3.40
2023-04-13T09:41:24.838Z,3.30
2023-04-13T09:42:24.849Z,3.00
2023-04-13T09:43:24.825Z,3.40
2023-04-13T09:44:25.121Z,3.00
2023-04-13T09:45:25.041Z,3.40
2023-04-13T09:46:24.874Z,3.20
2023-04-13T09:47:24.834Z,3.30
2023-04-13T09:48:24.803Z,3.20
2023-04-13T09:49:24.800Z,3.10
2023-04-13T09:50:24.820Z,3.20
2023-04-13T09:51:24.791Z,3.30
2023-04-13T09:52:24.798Z,3.50
2023-04-13T09:53:24.783Z,3.40
2023-04-13T09:54:24.781Z,3.30
2023-04-13T09:55:24.776Z,3.10
2023-04-13T09:56:24.769Z,3.30
2023-04-13T09:57:24.778Z,3.40
2023-04-13T09:58:25.523Z,3.20
2023-04-13T09:59:24.812Z,3.70
2023-04-13T10:00:24.759Z,3.60
2023-04-13T10:01:24.848Z,3.50
2023-04-13T10:02:24.986Z,3.80
2023-04-13T10:03:24.892Z,3.80
2023-04-13T10:04:24.751Z,3.60
2023-04-13T10:05:26.937Z,3.80
2023-04-13T10:06:24.728Z,4.30
2023-04-13T10:07:24.723Z,3.90
2023-04-13T10:08:36.889Z,3.70
2023-04-13T10:09:24.715Z,3.60
2023-04-13T10:10:24.717Z,3.90
2023-04-13T10:11:24.710Z,3.70
2023-04-13T10:12:24.912Z,3.70
2023-04-13T10:13:25.016Z,3.50
2023-04-13T10:14:24.705Z,3.70
2023-04-13T10:15:24.698Z,3.80
2023-04-13T10:16:24.755Z,4.10
2023-04-13T10:17:24.925Z,3.60
2023-04-13T10:18:24.802Z,3.50
2023-04-13T10:19:24.711Z,3.40
2023-04-13T10:20:25.720Z,3.40
2023-04-13T10:21:24.669Z,4.00
2023-04-13T10:22:24.659Z,3.60
2023-04-13T10:23:24.657Z,3.80
2023-04-13T10:24:24.654Z,3.60
2023-04-13T10:25:32.710Z,3.80
2023-04-13T10:26:24.644Z,3.80
2023-04-13T10:27:24.648Z,3.50
2023-04-13T10:28:26.042Z,3.20
2023-04-13T10:29:24.635Z,3.30
2023-04-13T10:30:24.629Z,3.70
2023-04-13T10:31:24.640Z,3.50
2023-04-13T10:32:24.659Z,3.30
2023-04-13T10:33:24.639Z,3.30
2023-04-13T10:34:24.614Z,3.20
2023-04-13T10:35:24.610Z,3.30
2023-04-13T10:36:24.603Z,3.10
2023-04-13T10:37:24.618Z,3.10
2023-04-13T10:38:24.597Z,3.30
2023-04-13T10:39:24.598Z,3.40
2023-04-13T10:40:24.590Z,3.80
2023-04-13T10:41:24.587Z,3.20
2023-04-13T10:42:24.583Z,3.50
2023-04-13T10:43:24.577Z,3.50
2023-04-13T10:44:24.570Z,3.50
2023-04-13T10:45:24.575Z,3.60
2023-04-13T10:46:24.609Z,3.30
2023-04-13T10:47:27.846Z,3.90
2023-04-13T10:48:24.554Z,3.20
2023-04-13T10:49:24.569Z,3.30
2023-04-13T10:50:24.566Z,3.40
2023-04-13T10:51:24.546Z,3.40
2023-04-13T10:52:24.535Z,3.50
2023-04-13T10:53:26.043Z,3.70
2023-04-13T10:54:24.534Z,3.40
2023-04-13T10:55:24.533Z,3.50
2023-04-13T10:56:24.520Z,3.30
2023-04-13T10:57:24.515Z,3.40
2023-04-13T10:58:24.521Z,3.60
2023-04-13T10:59:24.506Z,3.30
2023-04-13T11:00:34.781Z,3.20
2023-04-13T11:01:24.501Z,3.40
2023-04-13T11:02:24.594Z,3.60
2023-04-13T11:03:24.572Z,3.50
2023-04-13T11:04:24.581Z,3.20
2023-04-13T11:05:24.500Z,3.50
2023-04-13T11:06:24.508Z,3.60
2023-04-13T11:07:24.490Z,3.50
2023-04-13T11:08:24.480Z,3.20
2023-04-13T11:09:24.481Z,3.40
2023-04-13T11:10:24.470Z,3.30
2023-04-13T11:11:24.477Z,2.80
2023-04-13T11:12:24.665Z,2.80
2023-04-13T11:13:24.464Z,3.20
2023-04-13T11:14:24.475Z,2.50
2023-04-13T11:15:24.448Z,3.20
2023-04-13T11:16:24.464Z,2.90
2023-04-13T11:17:24.613Z,2.90
2023-04-13T11:18:24.435Z,2.70
2023-04-13T11:19:24.434Z,2.90
2023-04-13T11:20:24.423Z,2.80
2023-04-13T11:21:24.438Z,2.80
2023-04-13T11:22:24.429Z,3.30
2023-04-13T11:23:24.610Z,3.10
2023-04-13T11:24:24.426Z,3.10
2023-04-13T11:25:24.402Z,3.00
2023-04-13T11:26:24.428Z,2.90
2023-04-13T11:27:24.425Z,3.30
2023-04-13T11:28:24.389Z,3.10
2023-04-13T11:29:24.394Z,3.00
2023-04-13T11:30:24.394Z,2.90
2023-04-13T11:31:24.403Z,3.20
2023-04-13T11:32:24.531Z,3.20
2023-04-13T11:33:24.380Z,3.20
2023-04-13T11:34:24.365Z,3.10
2023-04-13T11:35:24.372Z,3.40
2023-04-13T11:36:24.384Z,3.30
2023-04-13T11:37:24.373Z,3.60
2023-04-13T11:38:24.373Z,3.20
2023-04-13T11:39:24.354Z,3.60
2023-04-13T11:40:24.345Z,3.30
2023-04-13T11:41:24.340Z,3.20
2023-04-13T11:42:24.338Z,3.60
2023-04-13T11:43:24.330Z,3.80
2023-04-13T11:44:24.332Z,3.40
2023-04-13T11:45:24.320Z,3.80
2023-04-13T11:46:24.373Z,3.50
2023-04-13T11:47:24.376Z,3.70
2023-04-13T11:48:24.306Z,3.50
2023-04-13T11:49:24.315Z,3.60
2023-04-13T11:50:24.304Z,3.70
2023-04-13T11:51:24.298Z,3.70
2023-04-13T11:52:24.292Z,3.60
2023-04-13T11:53:24.310Z,3.80
2023-04-13T11:54:24.311Z,3.40
2023-04-13T11:55:24.446Z,3.70
2023-04-13T11:56:24.273Z,3.30
2023-04-13T11:57:24.292Z,3.50
2023-04-13T11:58:24.276Z,3.30
2023-04-13T11:59:24.274Z,3.30
2023-04-13T12:00:24.625Z,3.30
2023-04-13T12:01:26.655Z,3.20
2023-04-13T12:02:28.659Z,3.20
2023-04-13T12:03:38.449Z,3.10
2023-04-13T12:04:24.421Z,3.20
2023-04-13T12:05:24.464Z,3.40
2023-04-13T12:06:24.623Z,3.80
2023-04-13T12:07:24.582Z,3.40
2023-04-13T12:08:25.615Z,3.60
2023-04-13T12:09:40.310Z,3.30
2023-04-13T12:10:26.814Z,3.30
2023-04-13T12:11:40.511Z,3.20
2023-04-13T12:13:36.019Z,3.20
2023-04-13T12:14:49.704Z,3.50
2023-04-13T12:15:40.965Z,3.70
2023-04-13T12:16:44.933Z,3.40
2023-04-13T12:18:28.754Z,3.40
2023-04-13T12:19:26.720Z,3.20
2023-04-13T12:20:24.260Z,3.20
2023-04-13T12:21:24.300Z,3.20
2023-04-13T12:22:24.306Z,3.30
2023-04-13T12:23:24.960Z,3.00
2023-04-13T12:24:24.524Z,3.00
2023-04-13T12:25:25.093Z,3.10
2023-04-13T12:27:25.343Z,3.10
2023-04-13T12:28:24.173Z,3.40
2023-04-13T12:29:24.147Z,3.40
2023-04-13T12:30:24.142Z,3.20
2023-04-13T12:31:24.216Z,3.00
2023-04-13T12:32:24.236Z,2.90
2023-04-13T12:33:24.129Z,2.90
2023-04-13T12:34:24.123Z,2.80
2023-04-13T12:35:24.119Z,3.00
2023-04-13T12:36:24.123Z,2.90
2023-04-13T12:37:24.114Z,3.20
2023-04-13T12:38:24.117Z,2.90
2023-04-13T12:39:24.108Z,2.70
2023-04-13T12:40:24.120Z,3.20
2023-04-13T12:41:24.116Z,2.90
2023-04-13T12:42:24.096Z,2.70
2023-04-13T12:43:24.090Z,3.20
2023-04-13T12:44:24.101Z,3.00
2023-04-13T12:45:24.089Z,3.40
2023-04-13T12:46:24.127Z,2.80
2023-04-13T12:47:24.163Z,3.10
2023-04-13T12:48:24.070Z,2.90
2023-04-13T12:49:24.066Z,3.00
2023-04-13T12:50:24.065Z,3.30
2023-04-13T12:51:24.086Z,3.40
2023-04-13T12:52:24.066Z,3.00
2023-04-13T12:53:24.055Z,2.80
2023-04-13T12:54:24.045Z,3.10
2023-04-13T12:55:24.056Z,3.00
2023-04-13T12:56:24.040Z,3.10
2023-04-13T12:57:24.057Z,3.00
2023-04-13T12:58:24.034Z,3.20
2023-04-13T12:59:24.265Z,2.90
2023-04-13T13:00:24.030Z,3.00
2023-04-13T13:01:24.059Z,3.30
2023-04-13T13:02:24.358Z,3.10
2023-04-13T13:03:24.041Z,3.30
2023-04-13T13:04:24.097Z,2.80
2023-04-13T13:05:24.008Z,2.80
2023-04-13T13:06:24.001Z,2.70
2023-04-13T13:07:24.053Z,2.90
2023-04-13T13:08:23.995Z,3.30
2023-04-13T13:09:24.001Z,2.80
2023-04-13T13:10:29.746Z,3.30
2023-04-13T13:11:23.995Z,3.10
2023-04-13T13:12:23.999Z,3.00
2023-04-13T13:13:24.000Z,2.90
2023-04-13T13:14:23.971Z,2.80
2023-04-13T13:15:23.971Z,2.90
2023-04-13T13:16:24.028Z,2.50
2023-04-13T13:17:24.338Z,2.80
2023-04-13T13:18:26.631Z,2.70
2023-04-13T13:19:23.971Z,2.90
2023-04-13T13:20:23.948Z,2.60
2023-04-13T13:21:23.951Z,2.90